sensor_id;sensor_type;location;lat;lon;timestamp;P1;durP1;ratioP1;P2;durP2;ratioP2
42846;SDS011;28495;49.916;14.536;2022-09-06T00:00:16;5.72;;;4.95;;
42846;SDS011;28495;49.916;14.536;2022-09-06T00:05:38;7.55;;;5.57;;
42846;SDS011;28495;49.916;14.536;2022-09-06T00:11:00;8.00;;;5.57;;
42846;SDS011;28495;49.916;14.536;2022-09-06T00:16:22;7.95;;;5.80;;
42846;SDS011;28495;49.916;14.536;2022-09-06T00:21:49;6.82;;;5.15;;
42846;SDS011;28495;49.916;14.536;2022-09-06T00:27:10;7.63;;;5.47;;
42846;SDS011;28495;49.916;14.536;2022-09-06T00:32:31;6.07;;;5.00;;
42846;SDS011;28495;49.916;14.536;2022-09-06T00:37:55;7.18;;;5.10;;
42846;SDS011;28495;49.916;14.536;2022-09-06T00:43:17;6.68;;;5.20;;
42846;SDS011;28495;49.916;14.536;2022-09-06T00:48:38;8.35;;;5.78;;
42846;SDS011;28495;49.916;14.536;2022-09-06T00:54:04;6.13;;;4.63;;
42846;SDS011;28495;49.916;14.536;2022-09-06T00:59:28;7.35;;;4.95;;
42846;SDS011;28495;49.916;14.536;2022-09-06T01:04:50;5.47;;;4.90;;
42846;SDS011;28495;49.916;14.536;2022-09-06T01:26:51;6.88;;;4.38;;
42846;SDS011;28495;49.916;14.536;2022-09-06T01:32:38;6.60;;;4.40;;
42846;SDS011;28495;49.916;14.536;2022-09-06T01:38:08;4.93;;;4.43;;
42846;SDS011;28495;49.916;14.536;2022-09-06T01:43:34;5.50;;;4.57;;
42846;SDS011;28495;49.916;14.536;2022-09-06T01:54:40;5.05;;;4.22;;
42846;SDS011;28495;49.916;14.536;2022-09-06T02:00:11;5.60;;;4.07;;
42846;SDS011;28495;49.916;14.536;2022-09-06T02:10:58;6.70;;;4.80;;
42846;SDS011;28495;49.916;14.536;2022-09-06T02:16:23;5.78;;;4.80;;
42846;SDS011;28495;49.916;14.536;2022-09-06T02:21:46;6.43;;;4.72;;
42846;SDS011;28495;49.916;14.536;2022-09-06T02:27:08;7.53;;;4.70;;
42846;SDS011;28495;49.916;14.536;2022-09-06T02:32:31;6.50;;;4.47;;
42846;SDS011;28495;49.916;14.536;2022-09-06T02:37:58;5.20;;;3.95;;
42846;SDS011;28495;49.916;14.536;2022-09-06T02:43:19;6.63;;;4.53;;
42846;SDS011;28495;49.916;14.536;2022-09-06T02:48:40;6.93;;;4.53;;
42846;SDS011;28495;49.916;14.536;2022-09-06T02:54:01;5.50;;;4.25;;
42846;SDS011;28495;49.916;14.536;2022-09-06T02:59:21;5.47;;;4.00;;
42846;SDS011;28495;49.916;14.536;2022-09-06T03:04:42;4.82;;;4.00;;
42846;SDS011;28495;49.916;14.536;2022-09-06T03:10:02;7.68;;;4.20;;
42846;SDS011;28495;49.916;14.536;2022-09-06T03:15:24;4.65;;;4.00;;
42846;SDS011;28495;49.916;14.536;2022-09-06T03:20:46;5.22;;;4.25;;
42846;SDS011;28495;49.916;14.536;2022-09-06T03:26:09;6.35;;;4.30;;
42846;SDS011;28495;49.916;14.536;2022-09-06T03:31:29;3.95;;;3.50;;
42846;SDS011;28495;49.916;14.536;2022-09-06T03:36:50;7.43;;;3.90;;
42846;SDS011;28495;49.916;14.536;2022-09-06T03:42:11;9.80;;;5.10;;
42846;SDS011;28495;49.916;14.536;2022-09-06T03:47:32;5.07;;;4.07;;
42846;SDS011;28495;49.916;14.536;2022-09-06T03:52:53;5.68;;;3.45;;
42846;SDS011;28495;49.916;14.536;2022-09-06T03:58:14;5.07;;;3.53;;
42846;SDS011;28495;49.916;14.536;2022-09-06T04:03:36;5.40;;;3.53;;
42846;SDS011;28495;49.916;14.536;2022-09-06T04:08:58;5.72;;;3.88;;
42846;SDS011;28495;49.916;14.536;2022-09-06T04:14:18;3.40;;;3.00;;
42846;SDS011;28495;49.916;14.536;2022-09-06T04:19:39;4.47;;;3.30;;
42846;SDS011;28495;49.916;14.536;2022-09-06T04:25:00;6.68;;;3.45;;
42846;SDS011;28495;49.916;14.536;2022-09-06T04:30:20;3.60;;;3.22;;
42846;SDS011;28495;49.916;14.536;2022-09-06T04:35:41;4.05;;;3.17;;
42846;SDS011;28495;49.916;14.536;2022-09-06T04:41:02;11.77;;;3.47;;
42846;SDS011;28495;49.916;14.536;2022-09-06T04:46:24;4.80;;;3.70;;
42846;SDS011;28495;49.916;14.536;2022-09-06T04:51:49;4.47;;;3.85;;
42846;SDS011;28495;49.916;14.536;2022-09-06T04:57:10;3.88;;;3.50;;
42846;SDS011;28495;49.916;14.536;2022-09-06T05:02:31;4.13;;;3.70;;
42846;SDS011;28495;49.916;14.536;2022-09-06T05:07:53;8.90;;;4.15;;
42846;SDS011;28495;49.916;14.536;2022-09-06T05:13:14;5.20;;;3.95;;
42846;SDS011;28495;49.916;14.536;2022-09-06T05:18:34;5.85;;;4.50;;
42846;SDS011;28495;49.916;14.536;2022-09-06T05:23:55;5.90;;;4.22;;
42846;SDS011;28495;49.916;14.536;2022-09-06T05:29:18;5.82;;;3.90;;
42846;SDS011;28495;49.916;14.536;2022-09-06T05:34:38;9.63;;;3.83;;
42846;SDS011;28495;49.916;14.536;2022-09-06T05:39:59;4.53;;;4.05;;
42846;SDS011;28495;49.916;14.536;2022-09-06T05:45:21;6.20;;;3.95;;
42846;SDS011;28495;49.916;14.536;2022-09-06T05:50:42;5.57;;;4.28;;
42846;SDS011;28495;49.916;14.536;2022-09-06T05:56:03;4.32;;;3.90;;
42846;SDS011;28495;49.916;14.536;2022-09-06T06:01:25;4.22;;;3.60;;
42846;SDS011;28495;49.916;14.536;2022-09-06T06:06:47;4.85;;;3.90;;
42846;SDS011;28495;49.916;14.536;2022-09-06T06:12:08;6.47;;;3.88;;
42846;SDS011;28495;49.916;14.536;2022-09-06T06:17:29;5.07;;;4.43;;
42846;SDS011;28495;49.916;14.536;2022-09-06T06:22:50;4.50;;;4.05;;
42846;SDS011;28495;49.916;14.536;2022-09-06T06:28:10;4.57;;;3.80;;
42846;SDS011;28495;49.916;14.536;2022-09-06T06:33:31;6.03;;;4.28;;
42846;SDS011;28495;49.916;14.536;2022-09-06T06:38:53;4.28;;;3.80;;
42846;SDS011;28495;49.916;14.536;2022-09-06T06:44:14;3.47;;;3.10;;
42846;SDS011;28495;49.916;14.536;2022-09-06T06:49:35;3.60;;;3.30;;
42846;SDS011;28495;49.916;14.536;2022-09-06T06:54:56;4.10;;;3.30;;
42846;SDS011;28495;49.916;14.536;2022-09-06T07:00:16;3.97;;;3.42;;
42846;SDS011;28495;49.916;14.536;2022-09-06T07:05:37;6.15;;;3.38;;
42846;SDS011;28495;49.916;14.536;2022-09-06T07:11:19;4.80;;;3.42;;
42846;SDS011;28495;49.916;14.536;2022-09-06T07:16:44;11.43;;;4.18;;
42846;SDS011;28495;49.916;14.536;2022-09-06T07:22:05;7.18;;;3.70;;
42846;SDS011;28495;49.916;14.536;2022-09-06T07:27:29;4.70;;;3.63;;
42846;SDS011;28495;49.916;14.536;2022-09-06T07:33:07;6.72;;;3.40;;
42846;SDS011;28495;49.916;14.536;2022-09-06T07:38:28;3.78;;;3.45;;
42846;SDS011;28495;49.916;14.536;2022-09-06T07:43:52;2.88;;;2.47;;
42846;SDS011;28495;49.916;14.536;2022-09-06T07:49:16;3.80;;;3.40;;
42846;SDS011;28495;49.916;14.536;2022-09-06T07:54:37;2.97;;;2.65;;
42846;SDS011;28495;49.916;14.536;2022-09-06T07:59:57;4.18;;;3.53;;
42846;SDS011;28495;49.916;14.536;2022-09-06T08:05:18;4.95;;;3.15;;
42846;SDS011;28495;49.916;14.536;2022-09-06T08:10:59;3.35;;;3.05;;
42846;SDS011;28495;49.916;14.536;2022-09-06T08:16:19;3.90;;;3.10;;
42846;SDS011;28495;49.916;14.536;2022-09-06T08:21:41;4.00;;;2.80;;
42846;SDS011;28495;49.916;14.536;2022-09-06T08:27:01;5.65;;;2.78;;
42846;SDS011;28495;49.916;14.536;2022-09-06T08:32:22;7.93;;;3.10;;
42846;SDS011;28495;49.916;14.536;2022-09-06T08:37:43;3.58;;;3.20;;
42846;SDS011;28495;49.916;14.536;2022-09-06T08:43:04;6.22;;;3.10;;
42846;SDS011;28495;49.916;14.536;2022-09-06T08:48:41;3.78;;;2.80;;
42846;SDS011;28495;49.916;14.536;2022-09-06T08:54:05;7.72;;;3.60;;
42846;SDS011;28495;49.916;14.536;2022-09-06T08:59:35;3.05;;;2.65;;
42846;SDS011;28495;49.916;14.536;2022-09-06T09:05:00;3.38;;;2.70;;
42846;SDS011;28495;49.916;14.536;2022-09-06T09:10:29;4.53;;;3.08;;
42846;SDS011;28495;49.916;14.536;2022-09-06T09:15:56;6.35;;;3.17;;
42846;SDS011;28495;49.916;14.536;2022-09-06T09:21:18;3.90;;;3.30;;
42846;SDS011;28495;49.916;14.536;2022-09-06T09:27:07;3.40;;;3.10;;
42846;SDS011;28495;49.916;14.536;2022-09-06T09:38:42;7.38;;;3.60;;
42846;SDS011;28495;49.916;14.536;2022-09-06T09:43:52;3.90;;;3.20;;
42846;SDS011;28495;49.916;14.536;2022-09-06T09:54:44;2.95;;;2.63;;
42846;SDS011;28495;49.916;14.536;2022-09-06T10:00:06;3.55;;;2.88;;
42846;SDS011;28495;49.916;14.536;2022-09-06T10:05:32;3.88;;;3.47;;
42846;SDS011;28495;49.916;14.536;2022-09-06T10:10:53;3.03;;;2.78;;
42846;SDS011;28495;49.916;14.536;2022-09-06T10:16:14;3.90;;;3.35;;
42846;SDS011;28495;49.916;14.536;2022-09-06T10:21:34;4.07;;;3.67;;
42846;SDS011;28495;49.916;14.536;2022-09-06T10:26:56;3.53;;;3.22;;
42846;SDS011;28495;49.916;14.536;2022-09-06T10:32:40;8.77;;;3.30;;
42846;SDS011;28495;49.916;14.536;2022-09-06T10:49:42;4.07;;;3.30;;
42846;SDS011;28495;49.916;14.536;2022-09-06T10:55:08;4.85;;;3.28;;
42846;SDS011;28495;49.916;14.536;2022-09-06T11:00:39;3.67;;;3.35;;
42846;SDS011;28495;49.916;14.536;2022-09-06T11:06:07;3.78;;;3.13;;
42846;SDS011;28495;49.916;14.536;2022-09-06T11:11:41;3.95;;;3.28;;
42846;SDS011;28495;49.916;14.536;2022-09-06T11:17:26;4.20;;;3.80;;
42846;SDS011;28495;49.916;14.536;2022-09-06T11:28:54;4.32;;;3.58;;
42846;SDS011;28495;49.916;14.536;2022-09-06T11:34:27;4.63;;;3.33;;
42846;SDS011;28495;49.916;14.536;2022-09-06T11:45:50;3.90;;;3.10;;
42846;SDS011;28495;49.916;14.536;2022-09-06T11:51:23;6.00;;;3.90;;
42846;SDS011;28495;49.916;14.536;2022-09-06T11:56:57;3.78;;;3.25;;
42846;SDS011;28495;49.916;14.536;2022-09-06T12:02:38;4.82;;;3.35;;
42846;SDS011;28495;49.916;14.536;2022-09-06T12:19:06;3.60;;;3.20;;
42846;SDS011;28495;49.916;14.536;2022-09-06T12:29:56;3.78;;;3.40;;
42846;SDS011;28495;49.916;14.536;2022-09-06T12:35:19;3.85;;;3.28;;
42846;SDS011;28495;49.916;14.536;2022-09-06T12:41:03;3.30;;;3.00;;
42846;SDS011;28495;49.916;14.536;2022-09-06T12:46:25;3.65;;;3.35;;
42846;SDS011;28495;49.916;14.536;2022-09-06T12:51:49;4.05;;;3.65;;
42846;SDS011;28495;49.916;14.536;2022-09-06T12:57:17;3.22;;;2.92;;
42846;SDS011;28495;49.916;14.536;2022-09-06T13:08:18;3.78;;;3.35;;
42846;SDS011;28495;49.916;14.536;2022-09-06T13:13:48;3.95;;;2.53;;
42846;SDS011;28495;49.916;14.536;2022-09-06T13:19:15;3.42;;;3.10;;
42846;SDS011;28495;49.916;14.536;2022-09-06T13:24:41;2.83;;;2.63;;
42846;SDS011;28495;49.916;14.536;2022-09-06T13:30:07;4.70;;;3.47;;
42846;SDS011;28495;49.916;14.536;2022-09-06T13:35:30;5.22;;;3.10;;
42846;SDS011;28495;49.916;14.536;2022-09-06T13:40:53;4.45;;;3.42;;
42846;SDS011;28495;49.916;14.536;2022-09-06T13:46:34;3.10;;;2.80;;
42846;SDS011;28495;49.916;14.536;2022-09-06T13:52:00;3.95;;;2.90;;
42846;SDS011;28495;49.916;14.536;2022-09-06T13:57:22;3.17;;;2.88;;
42846;SDS011;28495;49.916;14.536;2022-09-06T14:02:44;4.78;;;3.63;;
42846;SDS011;28495;49.916;14.536;2022-09-06T14:08:06;3.75;;;3.38;;
42846;SDS011;28495;49.916;14.536;2022-09-06T14:13:27;3.30;;;2.92;;
42846;SDS011;28495;49.916;14.536;2022-09-06T14:18:49;3.00;;;2.72;;
42846;SDS011;28495;49.916;14.536;2022-09-06T14:24:11;3.95;;;3.03;;
42846;SDS011;28495;49.916;14.536;2022-09-06T14:29:32;3.50;;;3.20;;
42846;SDS011;28495;49.916;14.536;2022-09-06T14:34:54;3.65;;;3.15;;
42846;SDS011;28495;49.916;14.536;2022-09-06T14:40:15;3.55;;;3.20;;
42846;SDS011;28495;49.916;14.536;2022-09-06T14:45:36;5.28;;;3.10;;
42846;SDS011;28495;49.916;14.536;2022-09-06T14:50:57;6.05;;;3.00;;
42846;SDS011;28495;49.916;14.536;2022-09-06T14:56:19;3.97;;;3.00;;
42846;SDS011;28495;49.916;14.536;2022-09-06T15:01:40;3.05;;;2.72;;
42846;SDS011;28495;49.916;14.536;2022-09-06T15:07:01;3.20;;;2.90;;
42846;SDS011;28495;49.916;14.536;2022-09-06T15:12:22;4.80;;;2.50;;
42846;SDS011;28495;49.916;14.536;2022-09-06T15:17:44;4.63;;;2.75;;
42846;SDS011;28495;49.916;14.536;2022-09-06T15:23:05;4.00;;;2.97;;
42846;SDS011;28495;49.916;14.536;2022-09-06T15:28:46;5.22;;;2.95;;
42846;SDS011;28495;49.916;14.536;2022-09-06T15:34:07;9.82;;;3.40;;
42846;SDS011;28495;49.916;14.536;2022-09-06T15:39:29;7.10;;;2.88;;
42846;SDS011;28495;49.916;14.536;2022-09-06T15:44:50;2.80;;;2.60;;
42846;SDS011;28495;49.916;14.536;2022-09-06T15:50:11;3.10;;;2.90;;
42846;SDS011;28495;49.916;14.536;2022-09-06T15:55:32;3.40;;;2.60;;
42846;SDS011;28495;49.916;14.536;2022-09-06T16:01:12;4.22;;;3.25;;
42846;SDS011;28495;49.916;14.536;2022-09-06T16:06:38;3.33;;;2.95;;
42846;SDS011;28495;49.916;14.536;2022-09-06T16:12:02;7.00;;;3.45;;
42846;SDS011;28495;49.916;14.536;2022-09-06T16:17:23;5.43;;;4.03;;
42846;SDS011;28495;49.916;14.536;2022-09-06T16:22:47;4.63;;;4.22;;
42846;SDS011;28495;49.916;14.536;2022-09-06T16:28:08;4.53;;;3.70;;
42846;SDS011;28495;49.916;14.536;2022-09-06T16:33:30;3.67;;;3.38;;
42846;SDS011;28495;49.916;14.536;2022-09-06T16:38:52;3.85;;;3.45;;
42846;SDS011;28495;49.916;14.536;2022-09-06T16:44:15;5.53;;;4.28;;
42846;SDS011;28495;49.916;14.536;2022-09-06T16:49:37;4.50;;;3.85;;
42846;SDS011;28495;49.916;14.536;2022-09-06T16:54:58;6.25;;;3.85;;
42846;SDS011;28495;49.916;14.536;2022-09-06T17:00:19;3.65;;;3.35;;
42846;SDS011;28495;49.916;14.536;2022-09-06T17:05:40;5.63;;;4.28;;
42846;SDS011;28495;49.916;14.536;2022-09-06T17:11:05;6.85;;;4.80;;
42846;SDS011;28495;49.916;14.536;2022-09-06T17:16:34;6.75;;;4.32;;
42846;SDS011;28495;49.916;14.536;2022-09-06T17:22:13;6.10;;;4.53;;
42846;SDS011;28495;49.916;14.536;2022-09-06T17:27:34;6.20;;;5.05;;
42846;SDS011;28495;49.916;14.536;2022-09-06T17:32:55;6.43;;;4.72;;
42846;SDS011;28495;49.916;14.536;2022-09-06T17:38:16;8.57;;;4.60;;
42846;SDS011;28495;49.916;14.536;2022-09-06T17:43:37;6.13;;;4.75;;
42846;SDS011;28495;49.916;14.536;2022-09-06T17:48:57;6.90;;;5.95;;
42846;SDS011;28495;49.916;14.536;2022-09-06T17:54:18;6.97;;;4.80;;
42846;SDS011;28495;49.916;14.536;2022-09-06T17:59:39;8.15;;;5.70;;
42846;SDS011;28495;49.916;14.536;2022-09-06T18:04:59;5.95;;;5.18;;
42846;SDS011;28495;49.916;14.536;2022-09-06T18:10:20;5.72;;;5.13;;
42846;SDS011;28495;49.916;14.536;2022-09-06T18:15:41;6.45;;;4.88;;
42846;SDS011;28495;49.916;14.536;2022-09-06T18:21:02;10.68;;;5.05;;
42846;SDS011;28495;49.916;14.536;2022-09-06T18:26:26;10.50;;;4.53;;
42846;SDS011;28495;49.916;14.536;2022-09-06T18:31:46;5.82;;;4.22;;
42846;SDS011;28495;49.916;14.536;2022-09-06T18:37:07;5.93;;;4.68;;
42846;SDS011;28495;49.916;14.536;2022-09-06T18:42:28;5.07;;;3.58;;
42846;SDS011;28495;49.916;14.536;2022-09-06T18:47:49;6.82;;;3.72;;
42846;SDS011;28495;49.916;14.536;2022-09-06T18:53:10;5.90;;;5.18;;
42846;SDS011;28495;49.916;14.536;2022-09-06T18:58:31;9.65;;;6.00;;
42846;SDS011;28495;49.916;14.536;2022-09-06T19:03:52;6.55;;;5.57;;
42846;SDS011;28495;49.916;14.536;2022-09-06T19:09:15;9.52;;;5.45;;
42846;SDS011;28495;49.916;14.536;2022-09-06T19:14:36;6.55;;;5.10;;
42846;SDS011;28495;49.916;14.536;2022-09-06T19:19:58;7.05;;;4.30;;
42846;SDS011;28495;49.916;14.536;2022-09-06T19:25:20;6.88;;;4.75;;
42846;SDS011;28495;49.916;14.536;2022-09-06T19:30:40;6.82;;;4.50;;
42846;SDS011;28495;49.916;14.536;2022-09-06T19:36:01;6.30;;;5.10;;
42846;SDS011;28495;49.916;14.536;2022-09-06T19:41:36;6.65;;;5.03;;
42846;SDS011;28495;49.916;14.536;2022-09-06T19:46:58;7.63;;;4.50;;
42846;SDS011;28495;49.916;14.536;2022-09-06T19:52:19;4.90;;;4.40;;
42846;SDS011;28495;49.916;14.536;2022-09-06T19:57:40;5.97;;;4.80;;
42846;SDS011;28495;49.916;14.536;2022-09-06T20:03:01;7.60;;;5.07;;
42846;SDS011;28495;49.916;14.536;2022-09-06T20:08:21;4.90;;;4.40;;
42846;SDS011;28495;49.916;14.536;2022-09-06T20:13:42;5.20;;;4.70;;
42846;SDS011;28495;49.916;14.536;2022-09-06T20:19:03;6.45;;;4.63;;
42846;SDS011;28495;49.916;14.536;2022-09-06T20:24:24;6.40;;;5.32;;
42846;SDS011;28495;49.916;14.536;2022-09-06T20:29:47;5.18;;;4.68;;
42846;SDS011;28495;49.916;14.536;2022-09-06T20:35:07;5.85;;;4.20;;
42846;SDS011;28495;49.916;14.536;2022-09-06T20:40:29;7.70;;;5.63;;
42846;SDS011;28495;49.916;14.536;2022-09-06T20:45:50;7.47;;;4.85;;
42846;SDS011;28495;49.916;14.536;2022-09-06T20:51:13;5.63;;;5.00;;
42846;SDS011;28495;49.916;14.536;2022-09-06T20:56:39;6.18;;;4.95;;
42846;SDS011;28495;49.916;14.536;2022-09-06T21:02:01;6.32;;;4.85;;
42846;SDS011;28495;49.916;14.536;2022-09-06T21:07:22;5.18;;;4.68;;
42846;SDS011;28495;49.916;14.536;2022-09-06T21:12:43;8.15;;;5.45;;
42846;SDS011;28495;49.916;14.536;2022-09-06T21:18:03;7.40;;;5.38;;
42846;SDS011;28495;49.916;14.536;2022-09-06T21:23:25;8.32;;;5.55;;
42846;SDS011;28495;49.916;14.536;2022-09-06T21:28:47;8.57;;;5.30;;
42846;SDS011;28495;49.916;14.536;2022-09-06T21:34:08;11.70;;;6.13;;
42846;SDS011;28495;49.916;14.536;2022-09-06T21:39:35;5.88;;;5.28;;
42846;SDS011;28495;49.916;14.536;2022-09-06T21:44:57;7.93;;;5.43;;
42846;SDS011;28495;49.916;14.536;2022-09-06T21:50:18;7.22;;;6.05;;
42846;SDS011;28495;49.916;14.536;2022-09-06T21:55:39;5.70;;;5.15;;
42846;SDS011;28495;49.916;14.536;2022-09-06T22:01:01;6.95;;;6.30;;
42846;SDS011;28495;49.916;14.536;2022-09-06T22:06:24;5.72;;;5.22;;
42846;SDS011;28495;49.916;14.536;2022-09-06T22:11:45;7.18;;;5.65;;
42846;SDS011;28495;49.916;14.536;2022-09-06T22:17:06;7.47;;;5.25;;
42846;SDS011;28495;49.916;14.536;2022-09-06T22:22:28;6.35;;;5.10;;
42846;SDS011;28495;49.916;14.536;2022-09-06T22:27:49;7.10;;;5.40;;
42846;SDS011;28495;49.916;14.536;2022-09-06T22:33:09;7.75;;;6.05;;
42846;SDS011;28495;49.916;14.536;2022-09-06T22:38:30;7.90;;;5.85;;
42846;SDS011;28495;49.916;14.536;2022-09-06T22:43:52;7.50;;;5.15;;
42846;SDS011;28495;49.916;14.536;2022-09-06T22:49:13;5.32;;;4.82;;
42846;SDS011;28495;49.916;14.536;2022-09-06T22:54:34;7.00;;;5.20;;
42846;SDS011;28495;49.916;14.536;2022-09-06T22:59:55;5.82;;;5.22;;
42846;SDS011;28495;49.916;14.536;2022-09-06T23:05:16;9.15;;;5.30;;
42846;SDS011;28495;49.916;14.536;2022-09-06T23:10:40;5.68;;;5.07;;
42846;SDS011;28495;49.916;14.536;2022-09-06T23:16:06;7.88;;;5.35;;
42846;SDS011;28495;49.916;14.536;2022-09-06T23:21:28;6.07;;;5.03;;
42846;SDS011;28495;49.916;14.536;2022-09-06T23:26:49;5.55;;;5.05;;
42846;SDS011;28495;49.916;14.536;2022-09-06T23:32:09;7.00;;;4.60;;
42846;SDS011;28495;49.916;14.536;2022-09-06T23:37:30;5.43;;;4.50;;
42846;SDS011;28495;49.916;14.536;2022-09-06T23:42:50;6.13;;;5.30;;
42846;SDS011;28495;49.916;14.536;2022-09-06T23:48:11;6.25;;;4.35;;
42846;SDS011;28495;49.916;14.536;2022-09-06T23:53:32;4.97;;;4.22;;
42846;SDS011;28495;49.916;14.536;2022-09-06T23:58:53;6.85;;;4.88;;
